Cape Hatteras National Seash, North Carolina
Current Conditions -  °F | °C
As of 10:55 AM on Friday 31 Oct 2014 (Local Time) from KMQI Reporting Station
Overcast Overcast  
Wind Chill: 16°   Ceiling: 4800
Heat Index: 16°   Visibility: 10mi
Dew Point:   Wind: 13mph
Humidity: 61%   Direction: 30°NNE
Pressure: 29.86"   Gusts: 18mph
Location:  35.8834°N, 75.6616°W
Report Text: KMQI 311455Z AUTO 03011G16KT 10SM BKN048 OVC050 16/08 A2986 RMK AO2 T01550081
Loading
Personal Weather Stations






























Interactive Weather Map
Tropical Storm Tracking
New forecast layout! Learn more

10-Day Weather Forecast

Advertisements
Track Severe Weather on mobile